N888PB LLBG-LLHZ
Flight info
| Callsign | N888PB |
|---|---|
| Flight time | 0h -3m |
| Altitude | 1200 |
| Route | CVFR |
| Aircraft | TBM9/L-SDE/C |
Departure
| Time | 2026-04-17 13:26 |
|---|---|
| Airport | Ben Gurion International Airport (LLBG) |
Arrival
| Time | 2026-04-17 13:22 |
|---|---|
| Airport | Herzliya Airport (LLHZ) |
| Time | Latitude | Longitude | Altitude | Speed | Heading |
|---|---|---|---|---|---|
| 2026-04-17 13:09 | 32.00769 | 34.89794 | 112 ft | 0 kts | 119° |
| 2026-04-17 13:10 | 32.00775 | 34.89780 | 112 ft | 0 kts | 118° |
| 2026-04-17 13:10 | 32.00769 | 34.89794 | 114 ft | 0 kts | 119° |
| 2026-04-17 13:18 | 32.00775 | 34.89780 | 114 ft | 0 kts | 118° |
| 2026-04-17 13:18 | 32.00769 | 34.89794 | 114 ft | 0 kts | 119° |
| 2026-04-17 13:22 | 32.00797 | 34.89744 | 114 ft | 12 kts | 338° |
| 2026-04-17 13:22 | 32.00842 | 34.89718 | 114 ft | 8 kts | 302° |
| 2026-04-17 13:22 | 32.00882 | 34.89631 | 114 ft | 16 kts | 303° |
| 2026-04-17 13:23 | 32.00940 | 34.89508 | 117 ft | 18 kts | 297° |
| 2026-04-17 13:23 | 32.01004 | 34.89366 | 114 ft | 22 kts | 297° |
| 2026-04-17 13:23 | 32.01129 | 34.89348 | 115 ft | 24 kts | 24° |
| 2026-04-17 13:23 | 32.01283 | 34.89444 | 114 ft | 26 kts | 31° |
| 2026-04-17 13:24 | 32.01450 | 34.89554 | 114 ft | 28 kts | 38° |
| 2026-04-17 13:24 | 32.01628 | 34.89669 | 114 ft | 29 kts | 32° |
| 2026-04-17 13:24 | 32.01671 | 34.89699 | 114 ft | 0 kts | 28° |
| 2026-04-17 13:24 | 32.01749 | 34.89744 | 113 ft | 21 kts | 25° |
| 2026-04-17 13:25 | 32.01842 | 34.89717 | 113 ft | 16 kts | 288° |
| 2026-04-17 13:25 | 32.01811 | 34.89499 | 112 ft | 54 kts | 258° |
| 2026-04-17 13:25 | 32.01716 | 34.88824 | 225 ft | 104 kts | 265° |
| 2026-04-17 13:25 | 32.01956 | 34.88011 | 566 ft | 131 kts | 329° |
| 2026-04-17 13:26 | 32.02944 | 34.87724 | 924 ft | 158 kts | 345° |
| 2026-04-17 13:26 | 32.04117 | 34.87365 | 1080 ft | 185 kts | 343° |
| 2026-04-17 13:26 | 32.05365 | 34.87021 | 1432 ft | 195 kts | 347° |
| 2026-04-17 13:26 | 32.06791 | 34.86577 | 974 ft | 211 kts | 347° |
| 2026-04-17 13:27 | 32.08055 | 34.86203 | 1173 ft | 170 kts | 343° |
| 2026-04-17 13:27 | 32.09079 | 34.85867 | 1098 ft | 140 kts | 337° |
| 2026-04-17 13:27 | 32.09975 | 34.85430 | 1198 ft | 140 kts | 333° |
| 2026-04-17 13:27 | 32.11040 | 34.85439 | 1018 ft | 172 kts | 15° |
| 2026-04-17 13:28 | 32.12002 | 34.86340 | 1124 ft | 177 kts | 45° |
| 2026-04-17 13:28 | 32.12808 | 34.87493 | 1123 ft | 197 kts | 48° |
| 2026-04-17 13:28 | 32.13767 | 34.88745 | 1169 ft | 200 kts | 41° |
| 2026-04-17 13:28 | 32.14834 | 34.89571 | 1040 ft | 163 kts | 19° |
| 2026-04-17 13:29 | 32.15725 | 34.89368 | 1016 ft | 148 kts | 309° |
| 2026-04-17 13:29 | 32.16362 | 34.88348 | 727 ft | 122 kts | 309° |
| 2026-04-17 13:29 | 32.16825 | 34.87782 | 580 ft | 80 kts | 313° |
| 2026-04-17 13:29 | 32.17077 | 34.87239 | 524 ft | 75 kts | 296° |
| 2026-04-17 13:30 | 32.17315 | 34.86659 | 664 ft | 88 kts | 297° |
| 2026-04-17 13:30 | 32.17607 | 34.86035 | 633 ft | 84 kts | 299° |
| 2026-04-17 13:30 | 32.17855 | 34.85426 | 595 ft | 82 kts | 297° |
| 2026-04-17 13:30 | 32.17775 | 34.84819 | 436 ft | 94 kts | 242° |
| 2026-04-17 13:31 | 32.17798 | 34.84215 | 236 ft | 75 kts | 295° |
| 2026-04-17 13:31 | 32.17977 | 34.83638 | 119 ft | 69 kts | 292° |
| 2026-04-17 13:31 | 32.18168 | 34.82975 | 235 ft | 103 kts | 290° |
| 2026-04-17 13:31 | 32.18651 | 34.82688 | 449 ft | 99 kts | 18° |
| 2026-04-17 13:32 | 32.19324 | 34.83097 | 641 ft | 112 kts | 47° |
| 2026-04-17 13:32 | 32.19215 | 34.84027 | 648 ft | 132 kts | 122° |
| 2026-04-17 13:32 | 32.18722 | 34.84995 | 611 ft | 147 kts | 126° |
| 2026-04-17 13:32 | 32.17971 | 34.85350 | 512 ft | 104 kts | 208° |
| 2026-04-17 13:33 | 32.17610 | 34.84881 | 417 ft | 78 kts | 295° |
| 2026-04-17 13:33 | 32.17802 | 34.84259 | 283 ft | 82 kts | 293° |
| 2026-04-17 13:33 | 32.17972 | 34.83649 | 116 ft | 67 kts | 293° |
| 2026-04-17 13:33 | 32.18121 | 34.83125 | 149 ft | 81 kts | 290° |
| 2026-04-17 13:34 | 32.18472 | 34.82567 | 575 ft | 98 kts | 355° |
| 2026-04-17 13:34 | 32.19288 | 34.82947 | 661 ft | 150 kts | 11° |
| 2026-04-17 13:34 | 32.19527 | 34.83804 | 970 ft | 127 kts | 129° |
| 2026-04-17 13:34 | 32.18938 | 34.84620 | 713 ft | 132 kts | 130° |
| 2026-04-17 13:35 | 32.18312 | 34.85427 | 639 ft | 119 kts | 170° |
| 2026-04-17 13:35 | 32.17611 | 34.85201 | 492 ft | 100 kts | 245° |
| 2026-04-17 13:35 | 32.17710 | 34.84546 | 359 ft | 73 kts | 295° |
| 2026-04-17 13:35 | 32.17868 | 34.83999 | 171 ft | 68 kts | 294° |
| 2026-04-17 13:36 | 32.18012 | 34.83520 | 109 ft | 56 kts | 294° |
| 2026-04-17 13:36 | 32.18170 | 34.82974 | 239 ft | 89 kts | 289° |
| 2026-04-17 13:36 | 32.18618 | 34.82625 | 675 ft | 107 kts | 13° |
| 2026-04-17 13:36 | 32.19373 | 34.83130 | 988 ft | 122 kts | 60° |
| 2026-04-17 13:37 | 32.19212 | 34.84071 | 802 ft | 135 kts | 121° |
| 2026-04-17 13:37 | 32.18704 | 34.85110 | 616 ft | 156 kts | 126° |
| 2026-04-17 13:37 | 32.17937 | 34.85402 | 618 ft | 119 kts | 209° |
| 2026-04-17 13:37 | 32.17649 | 34.84776 | 417 ft | 81 kts | 288° |
| 2026-04-17 13:38 | 32.17834 | 34.84130 | 214 ft | 85 kts | 289° |
| 2026-04-17 13:38 | 32.18001 | 34.83552 | 111 ft | 64 kts | 294° |
| 2026-04-17 13:38 | 32.18140 | 34.83122 | 120 ft | 61 kts | 292° |
| 2026-04-17 13:38 | 32.18188 | 34.82768 | 308 ft | 70 kts | 281° |
| 2026-04-17 13:39 | 32.18617 | 34.82726 | 595 ft | 102 kts | 27° |
| 2026-04-17 13:39 | 32.19276 | 34.83253 | 818 ft | 122 kts | 45° |
| 2026-04-17 13:39 | 32.19490 | 34.84107 | 677 ft | 121 kts | 66° |
| 2026-04-17 13:39 | 32.19184 | 34.84831 | 656 ft | 97 kts | 148° |
| 2026-04-17 13:40 | 32.18711 | 34.85323 | 549 ft | 82 kts | 157° |
| 2026-04-17 13:40 | 32.18169 | 34.85328 | 456 ft | 78 kts | 202° |
| 2026-04-17 13:40 | 32.17687 | 34.85122 | 491 ft | 59 kts | 243° |
| 2026-04-17 13:40 | 32.17699 | 34.84640 | 370 ft | 62 kts | 290° |
| 2026-04-17 13:41 | 32.17780 | 34.84021 | 581 ft | 87 kts | 286° |
| 2026-04-17 13:41 | 32.18000 | 34.83186 | 851 ft | 122 kts | 292° |
| 2026-04-17 13:41 | 32.18702 | 34.82531 | 1087 ft | 161 kts | 353° |
| 2026-04-17 13:41 | 32.19442 | 34.83291 | 1133 ft | 152 kts | 87° |
| 2026-04-17 13:42 | 32.19265 | 34.84401 | 983 ft | 127 kts | 58° |
| 2026-04-17 13:42 | 32.19642 | 34.85182 | 1118 ft | 102 kts | 95° |
| 2026-04-17 13:42 | 32.19224 | 34.85841 | 1064 ft | 108 kts | 186° |
| 2026-04-17 13:42 | 32.18460 | 34.85526 | 904 ft | 135 kts | 205° |
| 2026-04-17 13:43 | 32.17496 | 34.85085 | 1002 ft | 153 kts | 205° |
| 2026-04-17 13:43 | 32.17444 | 34.84432 | 598 ft | 119 kts | 334° |
| 2026-04-17 13:43 | 32.17903 | 34.83755 | 427 ft | 126 kts | 286° |
| 2026-04-17 13:43 | 32.18322 | 34.82707 | 452 ft | 135 kts | 332° |
| 2026-04-17 13:44 | 32.19070 | 34.82832 | 597 ft | 92 kts | 11° |
| 2026-04-17 13:44 | 32.19619 | 34.83098 | 673 ft | 101 kts | 43° |
| 2026-04-17 13:44 | 32.19327 | 34.83755 | 878 ft | 123 kts | 176° |
| 2026-04-17 13:44 | 32.18413 | 34.83355 | 716 ft | 145 kts | 226° |
| 2026-04-17 13:45 | 32.18389 | 34.82603 | 1227 ft | 114 kts | 336° |
| 2026-04-17 13:45 | 32.19169 | 34.83050 | 1120 ft | 165 kts | 68° |
| 2026-04-17 13:45 | 32.18970 | 34.84468 | 1021 ft | 196 kts | 114° |
| 2026-04-17 13:45 | 32.18272 | 34.85459 | 1064 ft | 114 kts | 175° |
| 2026-04-17 13:46 | 32.17617 | 34.85092 | 501 ft | 91 kts | 257° |
| 2026-04-17 13:46 | 32.17736 | 34.84477 | 320 ft | 72 kts | 295° |
| 2026-04-17 13:46 | 32.17902 | 34.83898 | 147 ft | 74 kts | 291° |
| 2026-04-17 13:46 | 32.18051 | 34.83398 | 103 ft | 44 kts | 291° |
| 2026-04-17 13:47 | 32.18133 | 34.83118 | 96 ft | 19 kts | 292° |
| 2026-04-17 13:47 | 32.18110 | 34.83066 | 97 ft | 7 kts | 144° |
| 2026-04-17 13:47 | 32.18107 | 34.83071 | 98 ft | 0 kts | 105° |
| 2026-04-17 13:48 | 32.18077 | 34.83111 | 99 ft | 6 kts | 108° |
| 2026-04-17 13:48 | 32.18077 | 34.83115 | 99 ft | 0 kts | 70° |